EST,Max TemperatureF,Mean TemperatureF,Min TemperatureF,Max Dew PointF,MeanDew PointF,Min DewpointF,Max Humidity, Mean Humidity, Min Humidity, Max Sea Level PressureIn, Mean Sea Level PressureIn, Min Sea Level PressureIn, Max VisibilityMiles, Mean VisibilityMiles, Min VisibilityMiles, Max Wind SpeedMPH, Mean Wind SpeedMPH, Max Gust SpeedMPH,PrecipitationIn, CloudCover, Events, WindDirDegrees
2012-11-1,60,49,39,23,20,16,50,34,20,29.98,29.92,29.86,10,10,10,16,9,24,0.00,0,,279
2012-11-2,71,56,43,46,35,24,58,45,36,30.00,29.96,29.90,10,10,10,18,8,25,0.00,1,,269
2012-11-3,77,62,48,52,42,34,67,50,29,30.10,30.03,30.00,10,10,10,14,6,20,0.00,0,,259
2012-11-4,68,60,48,56,49,38,81,68,56,30.01,29.98,29.95,10,10,9,15,8,26,0.01,1,Rain,282
2012-11-5,61,52,42,39,35,29,76,55,30,30.09,30.02,29.97,10,10,10,10,4,,0.00,1,,345
2012-11-6,51,46,42,43,38,33,93,78,54,30.03,29.98,29.94,10,7,3,15,10,22,0.75,8,Rain,74
2012-11-7,48,44,39,45,39,34,93,84,70,30.04,29.93,29.89,10,7,2,9,2,,0.09,7,Rain,258
2012-11-8,63,50,37,37,33,20,93,63,19,30.18,30.12,30.04,10,10,10,9,6,,0.00,0,,292
2012-11-9,66,52,37,36,32,28,86,52,24,30.30,30.23,30.18,10,10,9,7,4,,0.00,0,,265
2012-11-10,70,54,39,40,35,31,89,54,25,30.36,30.31,30.27,10,10,10,6,1,,0.00,0,,208
2012-11-11,64,54,45,50,44,34,77,64,52,30.45,30.37,30.34,10,10,10,9,4,,0.00,3,,107
2012-11-12,66,58,50,60,54,45,100,88,73,30.34,30.27,30.20,10,9,4,13,6,21,0.17,7,Rain,179
2012-11-13,62,50,39,43,37,30,80,60,39,30.34,30.27,30.21,10,10,10,10,6,,0.00,2,,338
2012-11-14,48,44,39,38,30,26,85,55,44,30.43,30.34,30.30,10,10,6,20,10,36,0.04,4,Rain,75
2012-11-15,50,44,39,43,39,35,93,88,76,30.33,30.29,30.23,10,6,1,10,6,,0.06,8,Rain,76
2012-11-16,57,46,35,40,35,32,100,71,37,30.35,30.30,30.25,10,8,2,8,2,,0.00,0,,56
2012-11-17,57,48,39,32,27,22,73,47,27,30.45,30.39,30.35,10,10,10,20,8,30,0.00,0,,74
2012-11-18,61,52,44,43,35,22,71,55,39,30.41,30.37,30.32,10,10,10,14,11,24,0.00,4,,70
2012-11-19,61,52,43,49,45,39,93,72,62,30.33,30.26,30.20,10,10,10,9,4,,0.00,7,,35
2012-11-20,66,57,48,48,43,38,90,64,36,30.19,30.13,30.05,10,10,8,8,3,,0.00,2,,265
2012-11-21,66,55,44,45,41,39,85,63,36,30.17,30.13,30.09,10,10,10,6,2,,0.00,1,,290
2012-11-22,64,54,43,40,36,32,85,55,34,30.29,30.21,30.17,10,10,9,7,1,,0.00,0,,236
2012-11-23,68,54,39,49,41,29,93,64,39,30.18,30.10,30.02,10,10,8,17,7,26,0.00,2,,286
2012-11-24,50,43,35,29,22,15,65,47,29,30.14,30.10,30.05,10,10,10,15,10,18,0.00,0,,296
2012-11-25,55,42,28,24,16,10,76,39,16,30.19,30.13,30.07,10,10,10,10,4,,0.00,0,,273
2012-11-26,66,51,36,29,22,15,76,36,15,30.22,30.16,30.13,10,10,10,10,4,,0.00,2,Rain,243
2012-11-27,54,48,42,50,44,32,94,77,45,30.21,30.14,30.09,10,8,3,9,3,,0.00,7,Rain,267
2012-11-28,55,46,37,41,37,32,93,73,45,30.37,30.31,30.21,10,10,7,8,4,,0.00,4,,288
2012-11-29,57,46,36,37,32,29,82,62,40,30.45,30.39,30.35,10,10,8,7,3,,0.00,0,,101
2012-11-30,60,48,37,43,37,30,83,67,51,30.41,30.35,30.30,10,10,9,6,1,,0.00,5,,179